Time;durP1;ratioP1;P1;durP2;ratioP2;P2;SDS_P1;SDS_P2;PMS_P1;PMS_P2;Temp;Humidity;BMP_temperature;BMP_pressure;BME280_temperature;BME280_humidity;BME280_pressure;Samples;Min_cycle;Max_cycle;Signal;HPM_P1;HPM_P2
2023/02/18 00:01:19;;;;;;;27.13;4.37;;;;;;;5.25;100.00;99898.47;5042276;28;20040;-72
2023/02/18 00:03:45;;;;;;;27.20;4.47;;;;;;;5.16;100.00;99909.97;5041739;28;20290;-75
2023/02/18 00:06:15;;;;;;;27.85;5.53;;;;;;;5.17;100.00;99980.41;5043374;28;20029;-75
2023/02/18 00:08:42;;;;;;;29.58;4.80;;;;;;;5.21;100.00;99987.09;5024540;28;20032;-74
2023/02/18 00:11:08;;;;;;;29.17;5.40;;;;;;;5.15;100.00;99979.72;5042622;28;20104;-74
2023/02/18 00:13:33;;;;;;;26.23;5.07;;;;;;;5.15;100.00;99966.50;5025150;28;20116;-72
2023/02/18 00:16:04;;;;;;;22.65;5.28;;;;;;;5.10;100.00;99945.75;5041640;28;20461;-74
2023/02/18 00:18:29;;;;;;;29.05;4.75;;;;;;;5.03;100.00;99953.47;5043697;28;20044;-74
2023/02/18 00:20:55;;;;;;;21.23;4.55;;;;;;;5.10;100.00;99915.81;5022854;28;20037;-74
2023/02/18 00:23:20;;;;;;;31.13;5.43;;;;;;;5.07;100.00;99901.91;5024576;28;20107;-75
2023/02/18 00:25:46;;;;;;;33.10;4.97;;;;;;;5.05;100.00;99909.16;5011166;28;20065;-74
2023/02/18 00:28:11;;;;;;;28.03;4.20;;;;;;;5.12;100.00;99876.81;5034510;28;20283;-74
2023/02/18 00:30:41;;;;;;;25.10;4.80;;;;;;;5.13;100.00;99820.28;5034041;28;20061;-74
2023/02/18 00:33:06;;;;;;;29.15;4.93;;;;;;;5.11;100.00;99822.25;5010700;28;20034;-75
2023/02/18 00:35:32;;;;;;;30.47;6.77;;;;;;;5.17;100.00;99848.09;5010164;28;20544;-74
2023/02/18 00:37:57;;;;;;;25.93;4.57;;;;;;;5.15;100.00;99847.41;5012353;28;20029;-74
2023/02/18 00:40:22;;;;;;;27.63;6.47;;;;;;;5.12;100.00;99898.00;5025638;28;20111;-73
2023/02/18 00:42:48;;;;;;;40.13;6.00;;;;;;;5.12;100.00;99964.16;5023258;28;20512;-72
2023/02/18 00:45:13;;;;;;;27.37;6.00;;;;;;;5.13;100.00;100042.53;5025214;28;20790;-71
2023/02/18 00:47:39;;;;;;;26.80;6.57;;;;;;;5.06;100.00;100074.88;5024290;28;20025;-71
2023/02/18 00:50:05;;;;;;;29.90;6.37;;;;;;;5.08;100.00;100151.47;5042379;28;20736;-74
2023/02/18 00:52:30;;;;;;;32.17;7.10;;;;;;;5.12;100.00;100171.38;5024864;28;20108;-75
2023/02/18 00:54:55;;;;;;;23.00;4.63;;;;;;;5.06;100.00;100171.94;5010778;28;20045;-75
2023/02/18 00:57:21;;;;;;;24.47;6.23;;;;;;;5.13;100.00;100190.72;5025360;28;20044;-74
2023/02/18 00:59:48;;;;;;;33.42;5.68;;;;;;;5.09;100.00;100163.72;5017566;28;20845;-74
2023/02/18 01:02:13;;;;;;;38.27;7.27;;;;;;;5.12;100.00;100189.06;5008476;28;20040;-71
2023/02/18 01:04:38;;;;;;;34.30;5.30;;;;;;;5.07;100.00;100187.66;5012328;28;20063;-72
2023/02/18 01:07:04;;;;;;;25.30;4.67;;;;;;;5.11;100.00;100163.59;5028137;28;20091;-74
2023/02/18 01:09:29;;;;;;;24.93;5.27;;;;;;;5.14;100.00;100145.59;5002863;28;20068;-73
2023/02/18 01:11:54;;;;;;;31.03;4.23;;;;;;;5.11;100.00;100113.31;5021561;28;20033;-75
2023/02/18 01:14:20;;;;;;;26.90;5.63;;;;;;;5.15;100.00;100101.44;5008689;28;20033;-75
2023/02/18 01:16:45;;;;;;;22.77;4.50;;;;;;;5.07;100.00;100076.53;5022483;28;20037;-75
2023/02/18 01:19:10;;;;;;;32.07;5.70;;;;;;;5.10;100.00;100099.22;5009495;28;20063;-75
2023/02/18 01:21:37;;;;;;;35.95;6.40;;;;;;;5.12;100.00;100070.81;4992871;28;20041;-75
2023/02/18 01:24:02;;;;;;;34.53;5.37;;;;;;;5.05;100.00;100059.13;5041395;28;20926;-75
2023/02/18 01:26:28;;;;;;;36.53;6.20;;;;;;;5.08;100.00;100056.22;5019089;28;20029;-72
2023/02/18 01:28:53;;;;;;;34.10;5.55;;;;;;;5.06;100.00;100048.41;4993821;28;20036;-71
2023/02/18 01:31:19;;;;;;;35.95;5.75;;;;;;;4.99;100.00;100057.91;5024636;28;20041;-75
2023/02/18 01:33:45;;;;;;;32.53;5.07;;;;;;;5.06;100.00;100119.88;5022907;28;20405;-75
2023/02/18 01:36:10;;;;;;;25.48;4.28;;;;;;;5.05;100.00;100097.00;5012034;28;20292;-74
2023/02/18 01:38:36;;;;;;;34.17;5.90;;;;;;;5.03;100.00;100091.06;5023737;28;20092;-75
2023/02/18 01:41:02;;;;;;;36.85;5.68;;;;;;;5.03;100.00;100098.13;4994684;28;20045;-75
2023/02/18 01:43:27;;;;;;;32.88;5.15;;;;;;;5.06;100.00;100109.28;5002363;28;20044;-75
2023/02/18 01:46:13;;;;;;;21.87;4.77;;;;;;;5.03;100.00;100106.94;5021840;28;20021;-73
2023/02/18 01:48:43;;;;;;;27.55;5.05;;;;;;;5.08;100.00;100072.94;5017008;28;20406;-71
2023/02/18 01:51:28;;;;;;;29.60;5.25;;;;;;;5.06;100.00;100072.25;5011514;28;20033;-71
2023/02/18 01:54:09;;;;;;;30.35;4.70;;;;;;;5.04;100.00;100020.44;5021784;28;20059;-75
2023/02/18 01:56:53;;;;;;;30.33;5.07;;;;;;;5.05;100.00;99998.28;5006753;28;20048;-73
2023/02/18 01:59:28;;;;;;;33.63;6.53;;;;;;;5.03;100.00;99963.19;5003677;28;20070;-72
2023/02/18 02:01:54;;;;;;;33.17;4.88;;;;;;;5.03;100.00;99950.84;4992917;28;20041;-75
2023/02/18 02:04:20;;;;;;;31.27;5.40;;;;;;;5.05;100.00;99932.97;5024060;28;20124;-75
2023/02/18 02:06:46;;;;;;;20.90;5.35;;;;;;;5.04;100.00;99917.25;5015774;28;20032;-75
2023/02/18 02:09:15;;;;;;;29.80;5.95;;;;;;;5.08;100.00;99930.06;5024794;28;20127;-75
2023/02/18 02:12:09;;;;;;;25.90;3.90;;;;;;;5.06;100.00;99931.19;5008079;28;20033;-75
2023/02/18 02:15:05;;;;;;;33.15;6.10;;;;;;;5.03;100.00;99947.31;5006291;28;20405;-75
2023/02/18 02:17:41;;;;;;;28.35;5.13;;;;;;;4.99;100.00;99983.00;5013420;28;20114;-74
2023/02/18 02:20:41;;;;;;;20.63;4.35;;;;;;;4.97;100.00;100003.47;4991650;28;20041;-75
2023/02/18 02:23:47;;;;;;;25.23;4.68;;;;;;;5.05;100.00;100052.03;5003141;28;20056;-75
2023/02/18 02:26:40;;;;;;;24.63;4.57;;;;;;;5.04;100.00;100054.84;5029521;28;20037;-75
2023/02/18 02:29:27;;;;;;;29.40;4.82;;;;;;;4.98;100.00;100076.56;5023694;28;20047;-75
2023/02/18 02:32:23;;;;;;;19.13;4.85;;;;;;;5.05;100.00;100115.53;5008491;28;20035;-75
2023/02/18 02:34:57;;;;;;;25.73;5.78;;;;;;;5.05;100.00;100104.94;5015209;28;20770;-72
2023/02/18 02:37:41;;;;;;;31.10;5.25;;;;;;;4.93;100.00;100111.38;5023350;28;20938;-75
2023/02/18 02:40:18;;;;;;;22.33;3.90;;;;;;;4.95;100.00;100140.34;4994517;28;20090;-75
2023/02/18 02:43:12;;;;;;;24.30;4.22;;;;;;;4.99;100.00;100158.44;5021395;28;20041;-73
2023/02/18 02:45:48;;;;;;;18.27;4.45;;;;;;;4.99;100.00;100158.44;5021276;28;20091;-75
2023/02/18 02:48:32;;;;;;;23.58;4.90;;;;;;;4.96;100.00;100168.47;5003424;28;20118;-73
2023/02/18 02:51:09;;;;;;;23.55;4.15;;;;;;;4.94;100.00;100179.19;5007213;28;20033;-75
2023/02/18 02:53:36;;;;;;;25.85;5.47;;;;;;;5.00;100.00;100228.06;5006230;28;20401;-74
2023/02/18 02:56:01;;;;;;;30.27;4.10;;;;;;;5.02;100.00;100248.13;5033087;28;20021;-75
2023/02/18 02:58:28;;;;;;;20.38;4.22;;;;;;;4.96;100.00;100261.88;5017872;28;20902;-74
2023/02/18 03:01:21;;;;;;;26.70;5.60;;;;;;;4.91;100.00;100265.94;5008239;28;20037;-73
2023/02/18 03:04:12;;;;;;;28.63;3.83;;;;;;;4.98;100.00;100314.66;5020934;28;20040;-75
2023/02/18 03:07:03;;;;;;;34.78;5.53;;;;;;;4.92;100.00;100302.84;5021317;28;20065;-74
2023/02/18 03:10:06;;;;;;;22.23;3.80;;;;;;;4.90;100.00;100318.00;5033331;28;20441;-72
2023/02/18 03:12:56;;;;;;;31.27;5.43;;;;;;;4.81;100.00;100335.50;5033400;28;20037;-75
2023/02/18 03:15:42;;;;;;;26.13;3.70;;;;;;;4.82;100.00;100370.72;5002693;28;20033;-75
2023/02/18 03:18:18;;;;;;;17.85;3.35;;;;;;;4.83;100.00;100383.00;5021638;28;20033;-72
2023/02/18 03:21:04;;;;;;;29.73;5.00;;;;;;;4.75;100.00;100388.09;5019998;28;20194;-75
2023/02/18 03:23:45;;;;;;;19.83;4.53;;;;;;;4.69;100.00;100380.72;5004079;28;20026;-75
2023/02/18 03:26:14;;;;;;;17.38;4.00;;;;;;;4.66;100.00;100424.16;5016507;28;20119;-75
2023/02/18 03:28:41;;;;;;;37.17;5.22;;;;;;;4.67;100.00;100464.66;5021241;28;20036;-75
2023/02/18 03:31:12;;;;;;;;;;;;;;;4.64;100.00;100479.78;5010182;28;20509;-75
2023/02/18 03:34:03;;;;;;;22.48;4.68;;;;;;;4.62;100.00;100525.84;5016046;28;20059;-73
2023/02/18 03:36:30;;;;;;;23.95;3.50;;;;;;;4.60;100.00;100541.84;5002561;28;20038;-71
2023/02/18 03:39:18;;;;;;;26.95;4.63;;;;;;;4.69;100.00;100553.44;5007078;28;20602;-74
2023/02/18 03:41:45;;;;;;;26.23;6.15;;;;;;;4.75;100.00;100546.78;5036490;28;20033;-74
2023/02/18 03:44:12;;;;;;;22.02;3.80;;;;;;;4.72;100.00;100555.00;5007210;28;20025;-74
2023/02/18 03:46:39;;;;;;;23.23;3.63;;;;;;;4.65;100.00;100559.97;5006655;28;20045;-73
2023/02/18 03:49:05;;;;;;;25.95;4.80;;;;;;;4.77;100.00;100581.88;5007235;28;20098;-75
2023/02/18 03:51:31;;;;;;;21.85;4.28;;;;;;;4.79;100.00;100579.97;5036662;28;20029;-75
2023/02/18 03:53:57;;;;;;;30.90;6.00;;;;;;;4.74;100.00;100553.06;5006158;28;20041;-75
2023/02/18 03:56:22;;;;;;;22.25;4.40;;;;;;;4.76;100.00;100569.66;4999917;28;20032;-75
2023/02/18 03:58:49;;;;;;;37.17;5.88;;;;;;;4.77;100.00;100560.72;5020410;28;20137;-75
2023/02/18 04:01:15;;;;;;;24.47;3.37;;;;;;;4.83;100.00;100568.16;5022168;28;20112;-75
2023/02/18 04:03:40;;;;;;;26.90;5.43;;;;;;;4.83;100.00;100552.28;5026874;28;20033;-73
2023/02/18 04:06:06;;;;;;;21.60;3.97;;;;;;;4.85;100.00;100553.00;4990843;28;20657;-74
2023/02/18 04:08:32;;;;;;;26.52;4.10;;;;;;;4.79;100.00;100527.06;5036586;28;20112;-73
2023/02/18 04:10:57;;;;;;;18.75;4.28;;;;;;;4.74;100.00;100534.56;5008369;28;20030;-75
2023/02/18 04:13:22;;;;;;;26.23;4.13;;;;;;;4.70;100.00;100541.91;5016390;28;20048;-74
2023/02/18 04:15:49;;;;;;;30.00;6.00;;;;;;;4.68;100.00;100556.22;5031492;28;20044;-71
2023/02/18 04:18:14;;;;;;;29.88;4.95;;;;;;;4.64;100.00;100571.53;5005769;28;20029;-74
2023/02/18 04:20:40;;;;;;;25.27;5.03;;;;;;;4.71;100.00;100585.91;5014688;28;20021;-75
2023/02/18 04:23:05;;;;;;;26.53;5.87;;;;;;;4.70;100.00;100599.25;5009353;28;20882;-74
2023/02/18 04:25:31;;;;;;;29.27;4.60;;;;;;;4.65;100.00;100599.63;5039658;28;20036;-75
2023/02/18 04:27:56;;;;;;;24.83;5.00;;;;;;;4.65;100.00;100620.78;5037816;28;20076;-75
2023/02/18 04:30:22;;;;;;;23.80;5.30;;;;;;;4.69;100.00;100635.44;5039848;28;20028;-75
2023/02/18 04:32:47;;;;;;;21.55;5.25;;;;;;;4.68;100.00;100651.41;5019963;28;20036;-75
2023/02/18 04:35:13;;;;;;;21.95;4.32;;;;;;;4.69;100.00;100651.31;5021523;28;20040;-71
2023/02/18 04:37:38;;;;;;;26.48;4.60;;;;;;;4.73;100.00;100660.66;5038748;28;20036;-73
2023/02/18 04:40:05;;;;;;;22.42;3.42;;;;;;;4.67;100.00;100655.03;5038647;28;20804;-74
2023/02/18 04:42:30;;;;;;;21.90;3.38;;;;;;;4.68;100.00;100656.72;5039697;28;20591;-75
2023/02/18 04:44:56;;;;;;;35.33;6.15;;;;;;;4.67;100.00;100665.63;5037294;28;20036;-75
2023/02/18 04:47:21;;;;;;;33.93;6.07;;;;;;;4.69;100.00;100658.41;5040752;28;20120;-74
2023/02/18 04:49:47;;;;;;;33.78;6.93;;;;;;;4.68;100.00;100667.28;5006856;28;20029;-75
2023/02/18 04:52:12;;;;;;;35.50;5.30;;;;;;;4.74;100.00;100664.16;5013315;28;20835;-75
2023/02/18 04:54:37;;;;;;;18.43;4.03;;;;;;;4.69;100.00;100648.66;5007981;28;20271;-72
2023/02/18 04:57:03;;;;;;;30.13;4.10;;;;;;;4.73;100.00;100633.38;5041760;28;20115;-73
2023/02/18 04:59:28;;;;;;;36.03;6.40;;;;;;;4.77;100.00;100638.28;5025128;28;20032;-73
2023/02/18 05:01:54;;;;;;;27.97;3.93;;;;;;;4.76;100.00;100620.72;5022591;28;20555;-73
2023/02/18 05:04:19;;;;;;;29.60;6.07;;;;;;;4.79;100.00;100622.28;5042973;28;20087;-75
2023/02/18 05:06:45;;;;;;;32.33;6.53;;;;;;;4.73;100.00;100585.75;5022897;28;20103;-75
2023/02/18 05:09:10;;;;;;;19.17;2.90;;;;;;;4.85;100.00;100590.03;5042889;28;20090;-74
2023/02/18 05:11:36;;;;;;;27.83;5.32;;;;;;;4.83;100.00;100544.34;5018149;28;20414;-73
2023/02/18 05:14:02;;;;;;;23.02;3.42;;;;;;;4.86;100.00;100517.63;5041494;28;20398;-75
2023/02/18 05:16:27;;;;;;;25.63;4.28;;;;;;;4.89;100.00;100492.72;5008296;28;20677;-75
2023/02/18 05:18:52;;;;;;;15.50;3.30;;;;;;;4.79;100.00;100445.06;5022759;28;20025;-74
2023/02/18 05:21:18;;;;;;;28.85;4.05;;;;;;;4.76;100.00;100421.53;5042191;28;20029;-72
2023/02/18 05:23:43;;;;;;;22.83;3.67;;;;;;;4.72;100.00;100420.94;5034953;28;20041;-71
2023/02/18 05:26:09;;;;;;;15.38;2.70;;;;;;;4.65;100.00;100415.34;4995903;28;20037;-74
2023/02/18 05:28:34;;;;;;;14.23;3.23;;;;;;;4.59;100.00;100421.19;5024373;28;20037;-75
2023/02/18 05:30:59;;;;;;;19.13;3.72;;;;;;;4.55;100.00;100381.91;5040603;28;20120;-75
2023/02/18 05:33:25;;;;;;;8.38;1.88;;;;;;;4.56;100.00;100355.31;5025059;28;20096;-75
2023/02/18 05:35:51;;;;;;;11.15;2.20;;;;;;;4.46;100.00;100309.53;5005335;28;20099;-74
2023/02/18 05:38:16;;;;;;;11.77;3.00;;;;;;;4.36;100.00;100276.94;5041848;28;20039;-75
2023/02/18 05:40:42;;;;;;;8.53;1.50;;;;;;;4.40;100.00;100265.97;5007773;28;20114;-75
2023/02/18 05:43:07;;;;;;;12.27;2.10;;;;;;;4.32;100.00;100230.59;4994477;28;20362;-75
2023/02/18 05:45:33;;;;;;;7.43;1.20;;;;;;;4.39;100.00;100235.22;5010339;28;20486;-72
2023/02/18 05:47:59;;;;;;;14.40;2.10;;;;;;;4.40;100.00;100217.53;5040166;28;20299;-74
2023/02/18 05:50:24;;;;;;;8.50;1.10;;;;;;;4.42;100.00;100219.09;5023988;28;20025;-75
2023/02/18 05:52:49;;;;;;;10.27;1.37;;;;;;;4.37;100.00;100186.09;5039593;28;20726;-75
2023/02/18 05:55:15;;;;;;;9.43;1.23;;;;;;;4.35;100.00;100206.53;5041573;28;20040;-75
2023/02/18 05:57:40;;;;;;;11.25;1.45;;;;;;;4.41;100.00;100227.97;5039114;28;20033;-75
2023/02/18 06:00:09;;;;;;;7.77;1.20;;;;;;;4.33;100.00;100229.63;5038410;28;20045;-72
2023/02/18 06:02:34;;;;;;;7.95;1.83;;;;;;;4.31;100.00;100252.69;5032292;28;20479;-75
2023/02/18 06:05:00;;;;;;;9.45;2.28;;;;;;;4.34;100.00;100294.75;5034020;28;20044;-74
2023/02/18 06:07:25;;;;;;;10.83;1.53;;;;;;;4.37;100.00;100320.91;5023801;28;20449;-75
2023/02/18 06:09:50;;;;;;;13.33;1.90;;;;;;;4.32;100.00;100329.22;5021400;28;20041;-75
2023/02/18 06:12:16;;;;;;;8.27;1.60;;;;;;;4.30;100.00;100356.75;5023104;28;20041;-75
2023/02/18 06:14:41;;;;;;;12.30;1.83;;;;;;;4.26;100.00;100373.84;5021841;28;20116;-73
2023/02/18 06:17:13;;;;;;;10.13;1.85;;;;;;;4.25;100.00;100411.81;5027085;28;20422;-75
2023/02/18 06:19:39;;;;;;;12.73;2.50;;;;;;;4.26;100.00;100430.19;5022253;28;20126;-75
2023/02/18 06:22:05;;;;;;;14.15;2.85;;;;;;;4.23;100.00;100456.84;5040239;28;20112;-75
2023/02/18 06:24:31;;;;;;;;;;;;;;;4.23;100.00;100473.53;5041398;28;20033;-73
2023/02/18 06:26:56;;;;;;;16.45;3.50;;;;;;;4.25;100.00;100502.50;5010209;28;20424;-74
2023/02/18 06:29:22;;;;;;;14.03;2.20;;;;;;;4.21;100.00;100509.84;5034873;28;20229;-75
2023/02/18 06:31:47;;;;;;;10.85;1.80;;;;;;;4.17;100.00;100521.63;5038662;28;20549;-75
2023/02/18 06:34:12;;;;;;;7.22;1.75;;;;;;;4.17;100.00;100537.50;5023255;28;20094;-71
2023/02/18 06:36:39;;;;;;;11.00;2.97;;;;;;;4.20;100.00;100566.28;5008168;28;20041;-71
2023/02/18 06:39:04;;;;;;;;;;;;;;;4.24;100.00;100569.53;5022223;28;20060;-74
2023/02/18 06:41:30;;;;;;;9.63;2.03;;;;;;;4.30;100.00;100602.53;5021247;28;19969;-76
2023/02/18 06:43:55;;;;;;;6.38;2.17;;;;;;;4.32;100.00;100592.69;5014857;28;20374;-75
2023/02/18 06:46:20;;;;;;;16.47;2.80;;;;;;;4.30;100.00;100606.00;5022169;28;20033;-75
2023/02/18 06:48:46;;;;;;;11.57;2.43;;;;;;;4.34;100.00;100622.47;5001890;28;20549;-75
2023/02/18 06:51:12;;;;;;;27.63;4.70;;;;;;;4.34;100.00;100622.47;4994263;28;20041;-75
2023/02/18 06:53:37;;;;;;;18.45;3.55;;;;;;;4.37;100.00;100630.97;5030076;28;20111;-74
2023/02/18 06:56:03;;;;;;;21.50;3.70;;;;;;;4.38;100.00;100629.19;5030399;28;20458;-70
2023/02/18 06:58:28;;;;;;;12.50;2.75;;;;;;;4.39;100.00;100622.94;5028934;28;20041;-71
2023/02/18 07:00:53;;;;;;;17.27;3.50;;;;;;;4.34;100.00;100625.94;5030809;28;20055;-73
2023/02/18 07:03:19;;;;;;;13.33;2.97;;;;;;;4.32;100.00;100624.41;5028967;28;20038;-73
2023/02/18 07:05:44;;;;;;;11.07;2.35;;;;;;;4.33;100.00;100619.00;5030221;28;20166;-75
2023/02/18 07:08:10;;;;;;;14.27;2.43;;;;;;;4.44;100.00;100618.09;5029376;28;20025;-74
2023/02/18 07:10:35;;;;;;;7.88;1.63;;;;;;;4.44;100.00;100596.97;5027683;28;20487;-75
2023/02/18 07:13:01;;;;;;;9.50;2.20;;;;;;;4.38;100.00;100574.53;5012528;28;20041;-75
2023/02/18 07:15:26;;;;;;;13.23;3.07;;;;;;;4.46;100.00;100562.47;4995246;28;20411;-75
2023/02/18 07:17:53;;;;;;;7.47;2.22;;;;;;;4.41;100.00;100539.06;5012776;28;20052;-75
2023/02/18 07:20:20;;;;;;;11.63;1.67;;;;;;;4.50;100.00;100527.72;4979866;28;20037;-73
2023/02/18 07:22:46;;;;;;;9.57;1.25;;;;;;;4.51;100.00;100497.66;5028902;28;20303;-75
2023/02/18 07:25:11;;;;;;;8.63;1.65;;;;;;;4.46;100.00;100478.72;5010701;28;20107;-76
2023/02/18 07:27:37;;;;;;;6.65;1.92;;;;;;;4.50;100.00;100468.72;5012038;28;20507;-75
2023/02/18 07:30:02;;;;;;;14.00;1.20;;;;;;;4.49;100.00;100449.34;5029970;28;20029;-74
2023/02/18 07:32:28;;;;;;;3.97;1.02;;;;;;;4.46;100.00;100447.00;5028364;28;20386;-72
2023/02/18 07:34:53;;;;;;;2.37;0.73;;;;;;;4.46;100.00;100447.00;4996423;28;20037;-72
2023/02/18 07:37:19;;;;;;;2.63;0.60;;;;;;;4.49;100.00;100449.34;4996186;28;20095;-74
2023/02/18 07:39:45;;;;;;;;;;;;;;;4.52;100.00;100445.63;5029017;28;20053;-75
2023/02/18 07:42:11;;;;;;;1.90;0.70;;;;;;;4.54;100.00;100454.25;5028568;28;20364;-75
2023/02/18 07:44:37;;;;;;;4.50;1.00;;;;;;;4.51;100.00;100455.34;4994959;28;20513;-75
2023/02/18 07:47:04;;;;;;;3.63;1.30;;;;;;;4.52;100.00;100467.63;5029120;28;20076;-74
2023/02/18 07:49:29;;;;;;;6.82;1.02;;;;;;;4.48;100.00;100468.00;5028109;28;20049;-75
2023/02/18 07:51:55;;;;;;;6.05;1.15;;;;;;;4.48;100.00;100490.00;5030229;28;20032;-75
2023/02/18 07:54:20;;;;;;;2.13;0.98;;;;;;;4.50;100.00;100503.09;5010392;28;20041;-76
2023/02/18 07:56:46;;;;;;;4.78;0.70;;;;;;;4.49;100.00;100496.94;5036292;28;20340;-75
2023/02/18 07:59:12;;;;;;;5.47;1.45;;;;;;;4.61;100.00;100514.44;5010276;28;20033;-75
2023/02/18 08:01:38;;;;;;;5.50;1.33;;;;;;;4.67;100.00;100526.28;4994562;28;20038;-75
2023/02/18 08:04:03;;;;;;;7.35;1.35;;;;;;;4.76;100.00;100540.56;5011100;28;20033;-73
2023/02/18 08:06:48;;;;;;;7.05;1.08;;;;;;;4.70;100.00;100527.84;4994102;28;20151;-74
2023/02/18 08:09:15;;;;;;;5.75;1.30;;;;;;;4.72;100.00;100536.47;5004891;28;20099;-76
2023/02/18 08:11:40;;;;;;;8.30;1.38;;;;;;;4.72;100.00;100544.41;5029509;28;20533;-74
2023/02/18 08:14:06;;;;;;;5.85;1.33;;;;;;;4.61;100.00;100540.88;5029269;28;20045;-75
2023/02/18 08:16:31;;;;;;;4.38;1.20;;;;;;;4.57;100.00;100550.03;5027881;28;20056;-74
2023/02/18 08:18:57;;;;;;;7.83;1.23;;;;;;;4.57;100.00;100555.31;5012794;28;20512;-76
2023/02/18 08:21:24;;;;;;;4.63;1.08;;;;;;;4.57;100.00;100571.19;4979460;28;20313;-76
2023/02/18 08:23:50;;;;;;;4.78;1.73;;;;;;;4.63;100.00;100575.94;5033215;28;20433;-74
2023/02/18 08:26:16;;;;;;;7.32;1.60;;;;;;;4.67;100.00;100576.53;5031679;28;20041;-75
2023/02/18 08:28:46;;;;;;;11.27;1.70;;;;;;;4.70;100.00;100576.28;5032844;28;20041;-76
2023/02/18 08:31:23;;;;;;;10.40;1.92;;;;;;;4.62;100.00;100569.00;5013816;28;20521;-76
2023/02/18 08:33:50;;;;;;;7.43;1.60;;;;;;;4.52;100.00;100568.09;5033717;28;20063;-76
2023/02/18 08:36:15;;;;;;;7.18;2.10;;;;;;;4.55;100.00;100573.13;5031080;28;20037;-75
2023/02/18 08:38:40;;;;;;;8.13;1.90;;;;;;;4.56;100.00;100573.94;5007171;28;20041;-75
2023/02/18 08:41:07;;;;;;;11.13;3.30;;;;;;;4.56;100.00;100569.50;5032222;28;20043;-74
2023/02/18 08:43:33;;;;;;;5.18;2.50;;;;;;;4.57;100.00;100576.47;4997682;28;20041;-72
2023/02/18 08:45:59;;;;;;;15.07;3.45;;;;;;;4.58;100.00;100574.66;5015753;28;20044;-76
2023/02/18 08:48:25;;;;;;;9.43;2.38;;;;;;;4.64;100.00;100571.53;5031381;28;20425;-75
2023/02/18 08:50:51;;;;;;;13.75;3.33;;;;;;;4.68;100.00;100564.16;5004874;28;20030;-76
2023/02/18 08:53:16;;;;;;;21.40;4.28;;;;;;;4.67;100.00;100557.19;4999995;28;20076;-77
2023/02/18 08:55:42;;;;;;;9.57;2.90;;;;;;;4.64;100.00;100539.78;5012054;28;20096;-77
2023/02/18 08:58:09;;;;;;;11.57;3.58;;;;;;;4.75;100.00;100544.16;5032285;28;20048;-75
2023/02/18 09:00:36;;;;;;;7.88;2.45;;;;;;;4.79;100.00;100546.41;4997359;28;20030;-76
2023/02/18 09:03:02;;;;;;;9.50;3.10;;;;;;;4.78;100.00;100539.47;5020621;28;20490;-74
2023/02/18 09:05:27;;;;;;;15.10;3.33;;;;;;;4.79;100.00;100529.72;5003859;28;20041;-74
2023/02/18 09:07:52;;;;;;;10.07;2.63;;;;;;;4.90;100.00;100534.09;5041400;28;20048;-74
2023/02/18 09:10:18;;;;;;;12.90;2.13;;;;;;;4.97;100.00;100533.44;5031293;28;20029;-73
2023/02/18 09:12:43;;;;;;;9.53;2.53;;;;;;;4.93;100.00;100517.94;5018922;28;20769;-75
2023/02/18 09:15:09;;;;;;;3.33;1.87;;;;;;;4.99;100.00;100510.31;4995646;28;20268;-76
2023/02/18 09:17:36;;;;;;;7.90;2.43;;;;;;;4.96;100.00;100500.00;4997704;28;20670;-76
2023/02/18 09:20:03;;;;;;;7.78;2.63;;;;;;;4.94;100.00;100496.66;5028898;28;20625;-76
2023/02/18 09:22:29;;;;;;;11.32;3.30;;;;;;;5.04;100.00;100500.19;5022714;28;20506;-76
2023/02/18 09:24:54;;;;;;;5.13;2.40;;;;;;;5.06;100.00;100495.59;5033570;28;20052;-76
2023/02/18 09:27:20;;;;;;;9.40;3.17;;;;;;;5.12;100.00;100501.31;5037137;28;20044;-75
2023/02/18 09:29:45;;;;;;;7.85;2.55;;;;;;;5.08;100.00;100492.81;5033268;28;20034;-76
2023/02/18 09:32:11;;;;;;;8.53;1.60;;;;;;;5.02;100.00;100486.25;5016848;28;20083;-75
2023/02/18 09:34:36;;;;;;;9.65;2.72;;;;;;;4.92;100.00;100480.09;5033782;28;20025;-74
2023/02/18 09:37:02;;;;;;;5.95;1.60;;;;;;;4.85;100.00;100473.66;5025510;28;20041;-74
2023/02/18 09:39:28;;;;;;;;;;;;;;;4.86;100.00;100492.00;5005227;28;20041;-72
2023/02/18 09:42:06;;;;;;;5.57;2.33;;;;;;;4.76;100.00;100477.91;5038438;28;19917;-75
2023/02/18 09:44:37;;;;;;;12.68;2.70;;;;;;;4.63;100.00;100464.88;5032819;28;20041;-76
2023/02/18 09:47:11;;;;;;;10.13;3.17;;;;;;;4.58;100.00;100476.84;5045401;28;20428;-74
2023/02/18 09:49:40;;;;;;;10.90;3.15;;;;;;;4.49;100.00;100478.44;5037359;28;20045;-76
2023/02/18 09:52:16;;;;;;;7.78;2.55;;;;;;;4.46;100.00;100478.72;5009364;28;20033;-76
2023/02/18 09:54:42;;;;;;;9.13;2.80;;;;;;;4.36;100.00;100480.47;5007898;28;20041;-75
2023/02/18 09:57:22;;;;;;;16.52;2.30;;;;;;;4.32;100.00;100477.22;5008499;28;20067;-74
2023/02/18 10:00:04;;;;;;;9.25;2.53;;;;;;;4.28;100.00;100469.69;5010250;28;20437;-75
2023/02/18 10:02:39;;;;;;;7.05;2.40;;;;;;;4.27;100.00;100479.41;5036664;28;20052;-76
2023/02/18 10:05:05;;;;;;;8.18;2.78;;;;;;;4.31;100.00;100487.91;5012764;28;20035;-76
2023/02/18 10:07:32;;;;;;;6.97;2.80;;;;;;;4.30;100.00;100484.44;5032899;28;20029;-75
2023/02/18 10:10:10;;;;;;;9.80;3.83;;;;;;;4.34;100.00;100485.03;4997081;28;20402;-75
2023/02/18 10:12:37;;;;;;;14.65;4.40;;;;;;;4.32;100.00;100486.97;5040397;28;20115;-77
2023/02/18 10:15:06;;;;;;;7.35;2.42;;;;;;;4.19;100.00;100466.84;5004305;28;20040;-74
2023/02/18 10:17:32;;;;;;;5.38;1.77;;;;;;;4.30;100.00;100460.66;5016507;28;20025;-76
2023/02/18 10:19:59;;;;;;;10.38;2.33;;;;;;;4.32;100.00;100469.28;4991739;28;20060;-73
2023/02/18 10:22:26;;;;;;;6.55;1.80;;;;;;;4.35;100.00;100454.97;5029708;28;20040;-77
2023/02/18 10:24:58;;;;;;;5.28;1.70;;;;;;;4.30;100.00;100443.97;5038007;28;20048;-74
2023/02/18 10:27:29;;;;;;;11.05;2.80;;;;;;;4.40;100.00;100434.28;5041156;28;20037;-76
2023/02/18 10:30:01;;;;;;;8.20;3.67;;;;;;;4.51;100.00;100444.78;5036991;28;20036;-77
2023/02/18 10:32:35;;;;;;;7.88;2.40;;;;;;;4.59;100.00;100428.28;5019086;28;20041;-76
2023/02/18 10:35:51;;;;;;;3.45;1.45;;;;;;;4.68;100.00;100429.28;5031784;28;20048;-77
2023/02/18 10:38:32;;;;;;;2.25;1.23;;;;;;;4.52;100.00;100412.09;4947863;28;20038;-76
2023/02/18 10:41:08;;;;;;;5.20;1.63;;;;;;;4.72;100.00;100418.31;4960272;28;20050;-76
2023/02/18 10:44:09;;;;;;;4.90;1.70;;;;;;;4.82;100.00;100411.28;4947659;28;20035;-75
2023/02/18 10:46:56;;;;;;;3.25;1.38;;;;;;;4.80;100.00;100421.16;4944351;28;20047;-76
2023/02/18 10:49:34;;;;;;;6.32;1.35;;;;;;;4.58;100.00;100398.34;4947490;28;20436;-75
2023/02/18 10:52:03;;;;;;;4.13;1.08;;;;;;;4.69;100.00;100393.94;4957891;28;20026;-76
2023/02/18 10:54:59;;;;;;;2.47;1.45;;;;;;;4.79;100.00;100400.09;4955891;28;20047;-76
2023/02/18 10:57:25;;;;;;;2.10;1.05;;;;;;;4.77;100.00;100397.59;4940300;29;20038;-75
2023/02/18 10:59:56;;;;;;;3.28;0.95;;;;;;;4.74;100.00;100392.56;4947611;28;20043;-75
2023/02/18 11:02:24;;;;;;;4.30;1.13;;;;;;;4.73;100.00;100392.69;4958769;28;20047;-75
2023/02/18 11:04:50;;;;;;;4.82;1.10;;;;;;;4.73;100.00;100387.41;4962312;28;20027;-76
2023/02/18 11:07:21;;;;;;;3.22;0.95;;;;;;;4.65;100.00;100380.13;4939738;28;20431;-75
2023/02/18 11:09:50;;;;;;;5.60;0.82;;;;;;;4.54;100.00;100365.22;4940973;28;20047;-75
2023/02/18 11:12:22;;;;;;;1.42;0.82;;;;;;;4.63;100.00;100359.13;4971695;28;20128;-76
2023/02/18 11:15:03;;;;;;;4.85;0.90;;;;;;;4.67;100.00;100362.34;5038088;28;20424;-73
2023/02/18 11:17:30;;;;;;;1.88;0.90;;;;;;;4.49;100.00;100351.53;5029043;28;20045;-74
2023/02/18 11:20:01;;;;;;;3.78;1.70;;;;;;;4.71;100.00;100368.22;5035046;28;20025;-76
2023/02/18 11:22:32;;;;;;;1.92;0.85;;;;;;;4.79;100.00;100363.06;4995928;28;20390;-76
2023/02/18 11:25:00;;;;;;;3.03;0.93;;;;;;;4.83;100.00;100357.38;5014102;28;20504;-74
2023/02/18 11:27:41;;;;;;;4.07;1.00;;;;;;;4.84;100.00;100345.81;5028830;28;20047;-76
2023/02/18 11:30:19;;;;;;;1.73;1.30;;;;;;;4.80;100.00;100333.00;5034021;28;20047;-76
2023/02/18 11:32:48;;;;;;;3.38;1.38;;;;;;;4.91;100.00;100316.19;5030108;28;20033;-76